Time;durP1;ratioP1;P1;durP2;ratioP2;P2;SDS_P1;SDS_P2;PMS_P1;PMS_P2;Temp;Humidity;BMP_temperature;BMP_pressure;BME280_temperature;BME280_humidity;BME280_pressure;Samples;Min_cycle;Max_cycle;Signal;HPM_P1;HPM_P2
2021/12/15 05:18:26;;;;;;;83.78;37.72;;;;;;;-2.94;100.00;101678.19;5554726;32;269219;-88
2021/12/15 05:21:30;;;;;;;82.10;36.10;;;;;;;-2.95;100.00;101677.31;5543181;32;33674;-88
2021/12/15 05:24:33;;;;;;;77.22;35.13;;;;;;;-2.90;100.00;101683.50;5543379;32;34876;-87
2021/12/15 05:27:38;;;;;;;70.03;32.95;;;;;;;-2.85;100.00;101691.44;5543879;32;34290;-88
2021/12/15 05:30:41;;;;;;;67.18;32.00;;;;;;;-2.80;100.00;101696.72;5537176;32;34262;-88
2021/12/15 05:33:44;;;;;;;70.03;32.55;;;;;;;-2.75;100.00;101698.63;5543400;32;34815;-88
2021/12/15 05:36:50;;;;;;;71.30;34.03;;;;;;;-2.64;100.00;101695.41;5532423;32;33783;-88
2021/12/15 05:39:55;;;;;;;68.03;33.45;;;;;;;-2.55;100.00;101694.78;5526607;32;34545;-87
2021/12/15 05:43:13;;;;;;;64.40;32.22;;;;;;;-2.53;100.00;101700.91;5524879;32;34178;-88
2021/12/15 05:46:40;;;;;;;71.00;33.88;;;;;;;-2.47;100.00;101704.53;5526444;32;35075;-91
2021/12/15 05:49:49;;;;;;;67.97;35.15;;;;;;;-2.35;100.00;101708.28;5525437;32;34198;-88
2021/12/15 05:52:52;;;;;;;71.45;36.17;;;;;;;-2.24;100.00;101708.56;5524628;32;34185;-88
2021/12/15 05:55:55;;;;;;;72.40;34.90;;;;;;;-2.34;100.00;101715.25;5534605;32;34593;-88
2021/12/15 05:58:58;;;;;;;74.37;36.40;;;;;;;-2.20;100.00;101726.00;5534814;32;33780;-88
2021/12/15 06:02:01;;;;;;;87.78;42.15;;;;;;;-2.32;100.00;101731.75;5544233;32;34123;-88
2021/12/15 06:05:05;;;;;;;89.03;41.55;;;;;;;-2.34;100.00;101733.44;5544503;32;34114;-88
2021/12/15 06:08:08;;;;;;;79.97;41.05;;;;;;;-2.30;100.00;101733.53;5543569;32;32593;-88
2021/12/15 06:11:11;;;;;;;85.62;42.15;;;;;;;-2.27;100.00;101743.16;5534335;32;33542;-88
2021/12/15 06:14:22;;;;;;;89.10;42.30;;;;;;;-2.24;100.00;101752.75;5562050;32;34106;-88
2021/12/15 06:17:29;;;;;;;89.28;42.65;;;;;;;-2.23;100.00;101751.91;5552454;32;33793;-88
2021/12/15 06:20:33;;;;;;;88.18;42.15;;;;;;;-2.26;100.00;101749.25;5555405;32;33527;-88
2021/12/15 06:23:37;;;;;;;80.12;40.85;;;;;;;-2.28;100.00;101749.19;5562558;32;34581;-88
2021/12/15 06:26:39;;;;;;;82.20;39.40;;;;;;;-2.27;100.00;101744.88;5564946;32;33806;-88
2021/12/15 06:29:42;;;;;;;72.60;37.88;;;;;;;-2.39;100.00;101740.22;5549290;32;33810;-88
2021/12/15 06:32:45;;;;;;;70.55;39.22;;;;;;;-2.37;100.00;101754.16;5550691;32;32659;-88
2021/12/15 06:35:53;;;;;;;74.65;36.92;;;;;;;-2.35;100.00;101757.69;5559663;32;34357;-87
2021/12/15 06:38:56;;;;;;;66.28;34.22;;;;;;;-2.39;100.00;101754.12;5555245;32;33976;-87
2021/12/15 06:41:59;;;;;;;65.75;33.45;;;;;;;-2.34;100.00;101762.94;5564496;32;34237;-88
2021/12/15 06:45:06;;;;;;;76.43;36.33;;;;;;;-2.35;100.00;101758.56;5568917;32;34439;-88
2021/12/15 06:58:17;;;;;;;80.53;37.17;;;;;;;-2.49;100.00;101766.00;5571985;32;34318;-90
2021/12/15 07:01:23;;;;;;;76.75;38.30;;;;;;;-2.41;100.00;101771.41;5564871;32;34005;-87
2021/12/15 07:04:26;;;;;;;75.18;37.22;;;;;;;-2.45;100.00;101785.16;5550333;32;34990;-88
2021/12/15 07:07:30;;;;;;;83.57;37.72;;;;;;;-2.38;100.00;101770.56;5550668;32;34293;-88
2021/12/15 07:10:37;;;;;;;84.90;38.97;;;;;;;-2.10;100.00;101766.09;5551818;32;33843;-87
2021/12/15 07:13:40;;;;;;;84.10;39.08;;;;;;;-2.21;100.00;101768.44;5553418;32;34386;-88
2021/12/15 07:16:46;;;;;;;80.70;37.08;;;;;;;-2.14;100.00;101766.84;5545958;32;34014;-88
2021/12/15 07:20:05;;;;;;;79.50;37.38;;;;;;;-2.08;100.00;101765.31;5541195;32;34017;-87
2021/12/15 07:23:12;;;;;;;82.57;35.85;;;;;;;-1.93;100.00;101779.53;5543700;32;34173;-87
2021/12/15 07:26:17;;;;;;;90.25;38.28;;;;;;;-1.84;100.00;101774.56;5544742;32;35089;-88
2021/12/15 07:29:20;;;;;;;90.70;40.08;;;;;;;-1.50;100.00;101775.34;5538882;32;34121;-87
2021/12/15 07:32:23;;;;;;;91.28;40.05;;;;;;;-1.52;100.00;101768.34;5554436;32;34502;-88
2021/12/15 07:35:27;;;;;;;93.32;39.22;;;;;;;-1.49;100.00;101776.22;5563169;32;33783;-87
2021/12/15 07:38:30;;;;;;;91.60;39.45;;;;;;;-1.58;100.00;101786.41;5563911;32;36119;-86
2021/12/15 07:41:41;;;;;;;104.25;42.47;;;;;;;-1.58;100.00;101789.00;5563886;32;35277;-86
2021/12/15 07:44:44;;;;;;;;;;;;;;;-1.73;100.00;101789.53;5561642;32;34663;-88
2021/12/15 07:47:46;;;;;;;104.07;42.60;;;;;;;-1.73;100.00;101793.03;5561406;32;34696;-88
2021/12/15 07:50:55;;;;;;;122.15;43.45;;;;;;;-1.85;100.00;101803.13;5558856;32;33911;-88
2021/12/15 07:54:00;;;;;;;117.40;45.38;;;;;;;-1.87;100.00;101797.88;5537223;32;33917;-88
2021/12/15 07:57:09;;;;;;;125.50;45.40;;;;;;;-1.91;100.00;101811.66;5540540;32;33746;-88
2021/12/15 08:00:14;;;;;;;123.38;44.90;;;;;;;-1.93;100.00;101819.44;5540649;32;34758;-87
2021/12/15 08:03:19;;;;;;;124.43;46.30;;;;;;;-1.74;100.00;101817.28;5554892;32;34174;-86
2021/12/15 08:06:23;;;;;;;127.75;47.03;;;;;;;-1.90;100.00;101821.22;5550677;32;35196;-88
2021/12/15 08:09:26;;;;;;;115.30;45.90;;;;;;;-1.92;100.00;101825.50;5535947;32;34593;-88
2021/12/15 08:12:29;;;;;;;123.15;47.50;;;;;;;-1.83;100.00;101827.44;5548991;32;33340;-89
2021/12/15 08:15:35;;;;;;;128.10;46.58;;;;;;;-1.84;100.00;101831.78;5550435;26;34099;-89
2021/12/15 08:18:37;;;;;;;140.57;47.47;;;;;;;-1.94;100.00;101835.88;5524456;32;34392;-88
2021/12/15 08:21:40;;;;;;;111.55;46.75;;;;;;;-1.80;100.00;101828.41;5546226;26;35525;-87
2021/12/15 08:24:43;;;;;;;130.73;47.95;;;;;;;-1.63;100.00;101838.34;5561445;32;34852;-87
2021/12/15 08:27:47;;;;;;;133.70;46.63;;;;;;;-1.60;100.00;101845.34;5563367;32;35236;-86
2021/12/15 08:30:50;;;;;;;128.15;47.30;;;;;;;-1.46;100.00;101843.97;5543205;32;34154;-89
2021/12/15 08:33:53;;;;;;;137.15;47.53;;;;;;;-1.42;100.00;101848.41;5527866;32;34507;-88
2021/12/15 08:36:56;;;;;;;135.88;47.55;;;;;;;-1.37;100.00;101851.09;5531282;32;33738;-85
2021/12/15 08:39:59;;;;;;;124.70;45.95;;;;;;;-1.25;100.00;101848.78;5532482;32;33922;-87
2021/12/15 08:43:04;;;;;;;141.90;47.28;;;;;;;-1.08;100.00;101856.13;5533941;32;34059;-87
2021/12/15 08:46:22;;;;;;;131.18;47.65;;;;;;;-1.18;100.00;101868.06;5546744;32;34323;-84
2021/12/15 08:49:27;;;;;;;116.65;46.13;;;;;;;-1.25;100.00;101864.41;5549744;32;33739;-90
2021/12/15 08:52:41;;;;;;;132.73;45.60;;;;;;;-0.97;100.00;101871.97;5534509;32;34183;-89
2021/12/15 08:55:46;;;;;;;125.45;46.37;;;;;;;-0.92;100.00;101872.97;5530175;32;33683;-90
2021/12/15 08:58:50;;;;;;;130.98;47.05;;;;;;;-0.72;100.00;101860.37;5529770;32;34055;-86
2021/12/15 09:01:53;;;;;;;133.55;47.95;;;;;;;-0.74;100.00;101861.19;5554075;32;34080;-89
2021/12/15 09:04:57;;;;;;;125.82;47.25;;;;;;;-0.71;100.00;101858.62;5551456;32;34282;-88
2021/12/15 09:08:00;;;;;;;124.20;46.58;;;;;;;-0.74;100.00;101851.66;5553574;32;34410;-89
2021/12/15 09:11:15;;;;;;;133.85;47.13;;;;;;;-0.80;100.00;101855.84;5531979;32;35954;-88
2021/12/15 09:14:18;;;;;;;131.65;47.25;;;;;;;-0.74;100.00;101853.38;5550660;32;33963;-89
2021/12/15 09:17:21;;;;;;;133.60;48.35;;;;;;;-0.88;100.00;101855.66;5546773;32;34613;-88
2021/12/15 09:20:27;;;;;;;117.90;45.50;;;;;;;-0.66;100.00;101864.81;5540291;32;33933;-88
2021/12/15 09:23:31;;;;;;;142.93;47.15;;;;;;;-0.75;100.00;101855.06;5549305;32;34269;-88
2021/12/15 09:26:34;;;;;;;127.38;47.67;;;;;;;-0.58;100.00;101863.28;5512777;32;33898;-87
2021/12/15 09:29:37;;;;;;;124.53;47.25;;;;;;;-0.64;100.00;101862.25;5532951;32;34096;-87
2021/12/15 09:32:40;;;;;;;124.70;44.67;;;;;;;-0.55;100.00;101847.69;5531227;32;34343;-87
2021/12/15 09:35:43;;;;;;;126.55;49.00;;;;;;;-0.22;100.00;101858.75;5531517;32;34050;-88
2021/12/15 09:38:48;;;;;;;129.55;46.72;;;;;;;-0.36;100.00;101855.88;5533868;32;34429;-89
2021/12/15 09:41:52;;;;;;;124.93;43.87;;;;;;;-0.04;100.00;101847.75;5531446;32;33820;-88
2021/12/15 09:45:02;;;;;;;105.93;45.17;;;;;;;-0.19;100.00;101852.72;5547288;32;34571;-88
2021/12/15 10:22:10;;;;;;;118.55;47.15;;;;;;;0.26;100.00;101851.75;4820320;26;20083;-88
2021/12/15 10:25:24;;;;;;;117.97;46.13;;;;;;;0.67;100.00;101852.41;5560048;31;33766;-90
2021/12/15 10:28:30;;;;;;;102.30;45.80;;;;;;;0.59;100.00;101857.50;5582857;31;34106;-88
2021/12/15 10:31:33;;;;;;;109.55;45.72;;;;;;;1.02;100.00;101852.06;5556697;32;35192;-86
2021/12/15 10:34:35;;;;;;;105.40;45.42;;;;;;;1.17;100.00;101851.34;5554317;32;33802;-90
2021/12/15 10:37:40;;;;;;;109.15;46.53;;;;;;;1.60;100.00;101851.00;5546471;32;34456;-88
2021/12/15 10:41:03;;;;;;;108.00;45.72;;;;;;;1.20;100.00;101854.03;5534822;32;34456;-89
2021/12/15 10:44:13;;;;;;;110.00;45.90;;;;;;;1.84;97.13;101857.37;5531556;32;33433;-89
2021/12/15 10:47:21;;;;;;;108.03;47.03;;;;;;;1.41;99.22;101857.75;5535851;32;34667;-88
2021/12/15 10:50:24;;;;;;;104.32;45.47;;;;;;;0.80;100.00;101849.12;5531992;32;35190;-87
2021/12/15 10:53:35;;;;;;;96.57;46.17;;;;;;;1.23;100.00;101857.53;5530910;32;33700;-88
2021/12/15 10:57:08;;;;;;;87.12;44.72;;;;;;;1.99;96.27;101855.78;5586947;26;34228;-89
2021/12/15 11:00:16;;;;;;;92.00;44.13;;;;;;;2.25;93.96;101849.91;5597189;26;33558;-89
2021/12/15 11:03:23;;;;;;;101.22;46.15;;;;;;;2.18;93.72;101848.09;5594293;31;34165;-88
2021/12/15 11:06:59;;;;;;;95.47;44.28;;;;;;;1.98;93.99;101849.69;5576281;31;33855;-89
2021/12/15 11:10:10;;;;;;;89.22;43.35;;;;;;;2.04;95.28;101854.09;5581535;31;34275;-92
2021/12/15 11:13:15;;;;;;;89.37;43.03;;;;;;;1.97;94.12;101852.28;5590049;31;34306;-89
2021/12/15 11:16:28;;;;;;;89.15;43.42;;;;;;;1.98;94.98;101859.25;5585447;31;33888;-87
2021/12/15 11:19:51;;;;;;;77.75;41.65;;;;;;;2.20;94.10;101854.25;5573221;31;33799;-88
2021/12/15 11:30:24;;;;;;;79.03;41.63;;;;;;;2.47;92.93;101847.47;5556512;29;20111;-89
2021/12/15 11:33:29;;;;;;;82.15;41.65;;;;;;;2.57;92.82;101836.19;5567978;32;34240;-90
2021/12/15 11:36:44;;;;;;;83.12;41.42;;;;;;;2.74;91.00;101840.66;5596288;26;35209;-90
2021/12/15 11:39:47;;;;;;;95.07;45.35;;;;;;;2.95;90.61;101840.81;5607146;26;33500;-89
2021/12/15 11:43:24;;;;;;;87.65;44.10;;;;;;;3.16;89.46;101835.66;4833436;30;20083;-89
2021/12/15 11:46:38;;;;;;;89.53;46.08;;;;;;;3.01;90.43;101826.84;5526030;32;34136;-90
2021/12/15 11:49:41;;;;;;;90.18;44.00;;;;;;;3.02;90.92;101833.84;5520089;32;34114;-89
2021/12/15 12:23:29;;;;;;;77.47;42.20;;;;;;;3.41;89.03;101813.03;4818322;30;20111;-88
2021/12/15 12:26:34;;;;;;;78.62;41.25;;;;;;;3.43;87.58;101819.16;5521690;32;35275;-88
2021/12/15 12:29:37;;;;;;;76.60;42.72;;;;;;;3.24;88.41;101813.81;5517966;32;34326;-88
2021/12/15 12:32:41;;;;;;;85.82;41.63;;;;;;;3.24;88.55;101811.19;5524351;32;34667;-89
2021/12/15 12:36:04;;;;;;;77.70;41.40;;;;;;;3.17;88.87;101816.44;5523678;32;34778;-91
2021/12/15 12:39:10;;;;;;;79.78;43.55;;;;;;;3.13;89.07;101820.78;5549299;26;33735;-91
2021/12/15 13:00:59;;;;;;;99.45;41.70;;;;;;;3.04;90.28;101816.37;1681834;26;20143;-90
2021/12/15 13:04:10;;;;;;;104.40;44.33;;;;;;;3.22;89.98;101802.47;5548983;32;33800;-90
2021/12/15 13:07:13;;;;;;;95.18;43.72;;;;;;;3.35;89.53;101799.87;5557267;32;34083;-89
2021/12/15 13:10:19;;;;;;;103.50;45.10;;;;;;;3.36;89.27;101792.03;5546268;32;34226;-88
2021/12/15 13:13:26;;;;;;;88.20;43.20;;;;;;;3.33;89.13;101785.91;5542764;32;34014;-89
2021/12/15 13:16:40;;;;;;;85.25;42.53;;;;;;;3.27;89.50;101781.50;5557258;32;34149;-88
2021/12/15 13:19:44;;;;;;;97.62;43.13;;;;;;;3.27;89.51;101778.00;5547346;32;34103;-89
2021/12/15 13:23:04;;;;;;;99.68;45.15;;;;;;;3.27;89.27;101781.50;5539864;32;33986;-89
2021/12/15 13:29:28;;;;;;;97.88;44.67;;;;;;;3.14;89.66;101783.22;5534466;32;34028;-91
2021/12/15 13:32:37;;;;;;;102.75;45.50;;;;;;;3.02;90.50;101781.41;5532514;32;35177;-90
2021/12/15 13:35:52;;;;;;;107.43;45.58;;;;;;;2.95;90.64;101790.09;5539288;32;34238;-90
2021/12/15 13:39:03;;;;;;;104.18;45.63;;;;;;;2.77;91.85;101785.66;5546032;32;33951;-90
2021/12/15 13:42:13;;;;;;;102.15;44.95;;;;;;;2.71;92.73;101796.09;5557689;32;34125;-90
2021/12/15 13:45:30;;;;;;;87.45;44.85;;;;;;;2.56;93.41;101792.50;5540325;32;33765;-91
2021/12/15 13:48:53;;;;;;;88.40;44.38;;;;;;;2.37;94.70;101802.84;5542152;26;36717;-88
2021/12/15 13:52:07;;;;;;;92.45;43.83;;;;;;;2.33;95.03;101805.44;5518011;32;34109;-90
2021/12/15 13:55:23;;;;;;;89.72;44.20;;;;;;;2.39;94.72;101801.16;5524514;32;34214;-90
2021/12/15 13:58:31;;;;;;;89.90;45.05;;;;;;;2.40;94.63;101802.91;5513124;32;33771;-89
2021/12/15 14:01:34;;;;;;;90.72;43.78;;;;;;;2.41;94.53;101803.75;5520838;32;34432;-88
2021/12/15 14:04:42;;;;;;;94.80;44.78;;;;;;;2.63;93.73;101806.53;5531335;32;33775;-88
2021/12/15 14:08:00;;;;;;;100.20;47.85;;;;;;;2.79;92.06;101797.00;5533537;32;33712;-91
2021/12/15 14:11:17;;;;;;;100.97;44.53;;;;;;;2.74;92.06;101802.25;5527657;32;33994;-91
2021/12/15 14:14:23;;;;;;;107.28;47.92;;;;;;;2.73;91.91;101810.09;5521445;32;34187;-90
2021/12/15 14:17:26;;;;;;;88.57;45.12;;;;;;;2.22;95.01;101821.09;5513169;32;34645;-89
2021/12/15 14:20:30;;;;;;;93.10;45.30;;;;;;;2.21;95.94;101822.81;5525435;32;34477;-88
2021/12/15 14:23:43;;;;;;;96.87;46.53;;;;;;;2.36;95.66;101819.44;5518039;32;34020;-89
2021/12/15 14:27:04;;;;;;;93.43;45.00;;;;;;;2.36;95.17;101819.44;5518147;32;35059;-89
2021/12/15 14:30:08;;;;;;;78.32;39.30;;;;;;;2.26;96.05;101822.88;5513245;32;33721;-91
2021/12/15 14:48:32;;;;;;;80.40;40.72;;;;;;;2.05;96.54;101819.19;2460061;29;20072;-88
2021/12/15 14:51:37;;;;;;;82.32;41.63;;;;;;;1.96;97.41;101822.59;5541698;32;34689;-89
2021/12/15 14:54:41;;;;;;;81.22;42.17;;;;;;;1.91;97.18;101820.81;5542962;32;34250;-90
2021/12/15 14:57:44;;;;;;;94.62;45.15;;;;;;;1.68;99.41;101826.69;5622494;26;34405;-90
2021/12/15 15:00:47;;;;;;;92.53;45.45;;;;;;;1.56;100.00;101814.34;5540356;32;33689;-89
2021/12/15 15:04:06;;;;;;;89.70;45.88;;;;;;;1.55;100.00;101812.59;5541482;32;33692;-89
2021/12/15 15:07:12;;;;;;;81.47;43.35;;;;;;;1.43;100.00;101815.94;5542764;32;34708;-89
2021/12/15 15:10:18;;;;;;;83.40;41.20;;;;;;;1.34;100.00;101814.97;5534560;32;33715;-89
2021/12/15 15:13:24;;;;;;;95.43;43.75;;;;;;;1.31;100.00;101812.31;5530331;32;33922;-90
